Time;durP1;ratioP1;P1;durP2;ratioP2;P2;SDS_P1;SDS_P2;PMS_P1;PMS_P2;Temp;Humidity;BMP_temperature;BMP_pressure;BME280_temperature;BME280_humidity;BME280_pressure;Samples;Min_cycle;Max_cycle;Signal;HPM_P1;HPM_P2
2022/04/01 00:00:59;;;;;;;12.47;9.73;;;;;;;10.64;55.61;95471.19;5121297;27;20189;-70
2022/04/01 00:03:24;;;;;;;10.60;9.00;;;;;;;10.63;55.90;95468.75;5120824;27;20200;-69
2022/04/01 00:05:50;;;;;;;13.37;8.77;;;;;;;10.62;56.09;95467.97;5121011;27;20204;-69
2022/04/01 00:08:15;;;;;;;13.40;9.90;;;;;;;10.60;56.46;95464.72;5121428;27;20181;-69
2022/04/01 00:10:41;;;;;;;13.00;9.00;;;;;;;10.63;56.43;95472.19;5107541;27;20648;-70
2022/04/01 00:13:06;;;;;;;13.40;9.87;;;;;;;10.65;56.32;95466.75;5124629;27;20172;-70
2022/04/01 00:15:32;;;;;;;11.87;9.50;;;;;;;10.65;56.50;95469.38;5113172;27;20577;-70
2022/04/01 00:17:58;;;;;;;11.53;9.07;;;;;;;10.61;56.23;95463.72;5114598;27;20193;-69
2022/04/01 00:20:23;;;;;;;10.67;8.97;;;;;;;10.63;56.23;95464.34;5124264;27;20263;-69
2022/04/01 00:22:49;;;;;;;11.30;9.07;;;;;;;10.62;56.01;95465.34;5133138;27;20322;-69
2022/04/01 00:25:15;;;;;;;10.87;8.97;;;;;;;10.60;55.99;95464.72;5131228;27;20660;-69
2022/04/01 00:27:40;;;;;;;9.40;8.20;;;;;;;10.57;56.35;95468.53;5123891;27;20172;-70
2022/04/01 00:30:07;;;;;;;11.50;8.77;;;;;;;10.52;56.14;95460.44;5124256;27;20176;-69
2022/04/01 00:32:32;;;;;;;10.57;8.50;;;;;;;10.50;56.70;95466.91;5121813;27;20184;-69
2022/04/01 00:34:58;;;;;;;11.50;9.13;;;;;;;10.49;56.92;95466.06;5120637;27;20439;-69
2022/04/01 00:37:23;;;;;;;10.90;8.70;;;;;;;10.55;57.08;95465.31;5120414;27;20192;-69
2022/04/01 00:39:49;;;;;;;12.00;9.07;;;;;;;10.62;57.17;95472.38;5119803;27;20679;-70
2022/04/01 00:42:14;;;;;;;10.37;8.90;;;;;;;10.60;56.73;95470.75;5120611;27;20200;-69
2022/04/01 00:44:40;;;;;;;10.70;8.33;;;;;;;10.50;56.99;95457.22;5120849;27;20288;-70
2022/04/01 00:47:09;;;;;;;11.80;8.77;;;;;;;10.49;56.97;95463.44;5126285;27;20168;-69
2022/04/01 00:49:34;;;;;;;12.50;8.40;;;;;;;10.52;57.35;95464.91;5123714;27;20491;-70
2022/04/01 00:52:06;;;;;;;9.70;8.20;;;;;;;10.43;57.13;95466.84;5133002;27;20422;-70
2022/04/01 00:54:32;;;;;;;10.67;8.13;;;;;;;10.38;57.33;95467.44;5124180;27;20438;-71
2022/04/01 00:56:58;;;;;;;10.27;8.53;;;;;;;10.41;57.73;95466.25;5118190;27;20454;-72
2022/04/01 00:59:26;;;;;;;10.47;8.50;;;;;;;10.40;57.53;95460.19;5121036;27;20512;-71
2022/04/01 01:01:52;;;;;;;10.60;7.93;;;;;;;10.40;56.96;95462.00;5123640;27;20422;-69
2022/04/01 01:04:19;;;;;;;10.67;8.77;;;;;;;10.38;57.47;95461.38;5123388;27;20446;-71
2022/04/01 01:06:58;;;;;;;10.33;8.03;;;;;;;10.42;57.23;95465.25;5128262;27;20421;-71
2022/04/01 01:09:25;;;;;;;11.77;8.10;;;;;;;10.44;57.08;95463.25;5118975;27;20437;-69
2022/04/01 01:11:52;;;;;;;10.30;8.20;;;;;;;10.41;57.33;95456.56;5104694;28;20926;-70
2022/04/01 01:14:38;;;;;;;10.50;8.63;;;;;;;10.42;57.57;95463.41;5120902;27;20472;-70
2022/04/01 01:17:12;;;;;;;9.63;7.97;;;;;;;10.43;57.52;95464.25;5118692;28;20788;-70
2022/04/01 01:19:38;;;;;;;8.27;7.17;;;;;;;10.42;57.41;95462.63;5122631;27;20457;-70
2022/04/01 01:22:04;;;;;;;11.60;8.40;;;;;;;10.39;57.73;95463.00;5131022;27;20938;-70
2022/04/01 01:24:31;;;;;;;9.83;8.03;;;;;;;10.26;57.52;95459.28;5121416;27;20491;-68
2022/04/01 01:26:57;;;;;;;9.67;8.30;;;;;;;10.24;57.70;95460.47;5125983;27;20169;-71
2022/04/01 01:29:26;;;;;;;11.00;8.57;;;;;;;10.18;57.73;95467.31;5131332;27;20809;-69
2022/04/01 01:31:54;;;;;;;10.73;8.30;;;;;;;10.15;58.12;95465.06;5125058;28;20418;-69
2022/04/01 01:34:21;;;;;;;9.73;8.23;;;;;;;10.04;57.88;95458.53;5122728;27;20521;-68
2022/04/01 01:36:46;;;;;;;11.20;8.70;;;;;;;10.09;58.36;95458.78;5119795;28;20443;-69
2022/04/01 01:39:12;;;;;;;10.30;8.67;;;;;;;10.18;58.31;95461.25;5102267;28;20938;-68
2022/04/01 01:41:37;;;;;;;12.90;8.43;;;;;;;10.15;57.96;95458.00;5110552;28;20225;-68
2022/04/01 01:44:04;;;;;;;11.30;9.23;;;;;;;10.19;57.77;95461.06;5120644;28;20268;-68
2022/04/01 01:46:30;;;;;;;12.23;9.57;;;;;;;10.19;57.64;95460.25;5120168;27;20176;-68
2022/04/01 01:48:55;;;;;;;13.17;9.20;;;;;;;10.14;57.89;95466.06;5119565;28;20479;-68
2022/04/01 01:56:48;;;;;;;12.77;9.03;;;;;;;10.12;58.42;95455.78;5122886;27;20501;-69
2022/04/01 01:59:14;;;;;;;12.27;9.67;;;;;;;10.12;58.05;95460.19;5131634;27;20541;-69
2022/04/01 02:01:41;;;;;;;12.93;9.97;;;;;;;10.07;58.45;95452.13;5134497;27;20173;-68
2022/04/01 02:04:07;;;;;;;12.73;10.30;;;;;;;10.14;58.92;95461.63;5120097;27;20177;-68
2022/04/01 02:06:33;;;;;;;12.07;9.93;;;;;;;10.11;58.00;95455.97;5125668;27;20483;-68
2022/04/01 02:08:59;;;;;;;12.10;10.50;;;;;;;10.02;58.33;95452.69;5127012;27;20656;-68
2022/04/01 02:11:25;;;;;;;12.90;10.63;;;;;;;9.99;59.18;95448.66;5125684;27;20184;-69
2022/04/01 02:13:51;;;;;;;12.30;9.90;;;;;;;9.97;58.82;95453.25;5126857;27;20424;-69
2022/04/01 02:16:17;;;;;;;11.30;9.63;;;;;;;9.98;59.13;95454.88;5116347;27;20191;-68
2022/04/01 02:18:42;;;;;;;12.87;10.50;;;;;;;9.96;58.77;95454.25;5126863;27;20204;-68
2022/04/01 02:21:11;;;;;;;14.67;11.43;;;;;;;9.90;58.65;95449.81;5126963;27;20406;-70
2022/04/01 02:23:41;;;;;;;14.10;10.90;;;;;;;9.98;58.75;95454.09;5114196;27;20182;-70
2022/04/01 02:26:07;;;;;;;14.00;10.70;;;;;;;9.92;58.74;95453.03;5129526;27;20886;-70
2022/04/01 02:28:37;;;;;;;13.27;10.13;;;;;;;9.88;58.43;95457.03;5126569;27;20407;-71
2022/04/01 02:31:06;;;;;;;14.07;11.00;;;;;;;9.88;58.77;95453.63;5134004;27;20405;-71
2022/04/01 02:33:32;;;;;;;14.40;10.87;;;;;;;9.79;59.29;95460.78;5117779;27;20714;-70
2022/04/01 02:35:58;;;;;;;15.37;11.90;;;;;;;9.79;58.97;95458.19;5120943;27;20740;-69
2022/04/01 02:38:29;;;;;;;14.70;11.23;;;;;;;9.76;59.57;95463.78;5131331;27;20817;-70
2022/04/01 02:40:55;;;;;;;14.47;11.80;;;;;;;9.70;59.34;95448.84;5122862;27;20419;-69
2022/04/01 02:43:21;;;;;;;14.70;11.40;;;;;;;9.68;59.19;95457.69;5131460;27;20417;-69
2022/04/01 02:45:50;;;;;;;15.90;11.93;;;;;;;9.76;59.38;95462.00;5120259;27;20430;-69
2022/04/01 02:48:17;;;;;;;16.63;12.90;;;;;;;9.72;59.14;95452.06;5126199;27;20402;-70
2022/04/01 02:50:43;;;;;;;15.37;12.10;;;;;;;9.72;59.56;95452.06;5126212;27;20497;-68
2022/04/01 02:53:09;;;;;;;17.10;12.80;;;;;;;9.80;60.01;95457.97;5116387;27;20417;-71
2022/04/01 02:55:34;;;;;;;16.70;13.10;;;;;;;9.81;59.64;95461.41;5117137;27;20444;-69
2022/04/01 02:58:00;;;;;;;18.07;14.33;;;;;;;9.80;59.34;95457.19;5128301;27;20595;-70
2022/04/01 03:00:26;;;;;;;18.67;13.80;;;;;;;9.82;59.48;95460.41;5130993;27;20188;-70
2022/04/01 03:02:51;;;;;;;18.03;13.80;;;;;;;9.83;59.29;95464.63;5125843;27;20164;-70
2022/04/01 03:05:20;;;;;;;22.50;16.50;;;;;;;9.80;59.77;95459.78;5132905;27;20216;-70
2022/04/01 03:07:45;;;;;;;24.00;17.13;;;;;;;9.89;59.67;95468.31;5117887;27;20181;-71
2022/04/01 03:10:11;;;;;;;27.90;19.93;;;;;;;9.91;59.66;95461.06;5129897;27;21121;-70
2022/04/01 03:12:37;;;;;;;30.00;21.93;;;;;;;9.87;59.73;95463.25;5114221;28;20248;-70
2022/04/01 03:15:03;;;;;;;31.93;23.00;;;;;;;9.93;59.39;95464.31;5113921;27;20189;-70
2022/04/01 03:17:30;;;;;;;31.97;22.83;;;;;;;9.95;59.07;95463.13;5091911;28;20495;-71
2022/04/01 03:19:56;;;;;;;28.40;20.30;;;;;;;9.89;59.06;95469.13;5092615;28;20443;-70
2022/04/01 03:22:21;;;;;;;28.23;19.90;;;;;;;9.89;59.62;95465.69;5093547;28;20404;-69
2022/04/01 03:24:47;;;;;;;29.13;20.57;;;;;;;9.86;59.21;95464.25;5093331;28;20676;-70
2022/04/01 03:27:13;;;;;;;27.47;19.93;;;;;;;9.90;58.78;95475.13;5110507;28;20268;-70
2022/04/01 03:29:38;;;;;;;28.50;21.07;;;;;;;9.93;58.90;95474.75;5114227;28;20169;-70
2022/04/01 03:32:04;;;;;;;25.87;18.70;;;;;;;9.84;59.06;95482.78;5114423;28;20410;-69
2022/04/01 03:34:32;;;;;;;22.30;16.93;;;;;;;9.84;58.75;95474.09;5113603;28;20544;-70
2022/04/01 03:36:57;;;;;;;22.00;15.73;;;;;;;9.80;58.69;95483.34;5112507;28;20411;-70
2022/04/01 03:39:24;;;;;;;20.70;15.80;;;;;;;9.76;58.21;95472.44;5119170;27;20454;-70
2022/04/01 03:41:50;;;;;;;21.63;15.30;;;;;;;9.60;58.10;95476.13;5133244;27;20651;-70
2022/04/01 03:44:17;;;;;;;17.97;14.33;;;;;;;9.59;58.11;95478.94;5106634;27;20439;-69
2022/04/01 03:46:47;;;;;;;18.03;14.20;;;;;;;9.60;58.66;95483.16;5128297;27;20430;-69
2022/04/01 03:49:24;;;;;;;19.50;15.37;;;;;;;9.58;58.78;95482.53;5121274;27;20921;-69
2022/04/01 03:51:50;;;;;;;20.03;15.20;;;;;;;9.55;58.55;95491.59;5133432;27;20402;-70
2022/04/01 03:54:16;;;;;;;18.77;13.70;;;;;;;9.50;58.54;95483.47;5132978;27;20531;-70
2022/04/01 03:56:47;;;;;;;15.93;12.20;;;;;;;9.48;58.72;95482.84;5117384;27;20441;-70
2022/04/01 03:59:14;;;;;;;19.13;14.60;;;;;;;9.52;58.62;95487.53;5103254;28;20455;-70
2022/04/01 04:01:39;;;;;;;18.03;12.53;;;;;;;9.40;58.49;95483.00;5099731;28;20438;-70
2022/04/01 04:04:05;;;;;;;14.83;11.13;;;;;;;9.47;58.67;95486.47;5112632;28;20502;-70
2022/04/01 04:06:34;;;;;;;17.00;11.93;;;;;;;9.37;57.25;95492.81;5131729;27;20184;-71
2022/04/01 04:09:01;;;;;;;13.90;10.90;;;;;;;9.26;58.47;95487.28;5119908;27;20943;-70
2022/04/01 04:11:29;;;;;;;13.37;10.87;;;;;;;9.28;58.64;95490.50;5112216;27;20853;-71
2022/04/01 04:13:56;;;;;;;15.60;11.70;;;;;;;9.32;59.04;95495.19;5118136;27;20781;-70
2022/04/01 04:16:48;;;;;;;14.83;11.20;;;;;;;9.35;58.73;95497.44;5132276;27;21067;-72
2022/04/01 04:19:13;;;;;;;15.20;11.60;;;;;;;9.37;57.89;95499.88;5094319;27;20872;-69
2022/04/01 04:21:57;;;;;;;14.70;10.83;;;;;;;9.33;58.42;95491.56;5094435;28;20476;-69
2022/04/01 04:24:30;;;;;;;14.20;11.40;;;;;;;9.37;58.29;95492.03;5112966;27;20204;-71
2022/04/01 04:27:07;;;;;;;12.67;10.33;;;;;;;9.41;58.20;95497.69;5086614;28;20429;-72
2022/04/01 04:29:33;;;;;;;12.57;10.60;;;;;;;9.37;57.46;95497.25;5103504;27;20930;-72
2022/04/01 04:31:59;;;;;;;13.63;10.20;;;;;;;9.40;58.08;95498.69;5132397;27;20426;-69
2022/04/01 04:34:31;;;;;;;11.37;9.50;;;;;;;9.45;58.31;95504.97;5127005;27;20228;-69
2022/04/01 04:36:57;;;;;;;13.77;10.47;;;;;;;9.46;57.49;95508.38;5105481;28;20224;-70
2022/04/01 04:39:36;;;;;;;11.80;9.80;;;;;;;9.45;58.46;95504.16;5128948;27;20450;-69
2022/04/01 04:42:03;;;;;;;14.20;10.40;;;;;;;9.42;57.73;95504.53;5132351;27;20459;-69
2022/04/01 04:44:30;;;;;;;12.73;9.90;;;;;;;9.35;57.15;95504.47;5115963;27;20475;-69
2022/04/01 04:47:00;;;;;;;14.00;10.17;;;;;;;9.32;57.50;95505.66;5133906;27;20418;-69
2022/04/01 04:49:27;;;;;;;13.60;10.00;;;;;;;9.34;57.01;95513.31;5132051;27;20463;-69
2022/04/01 04:51:53;;;;;;;11.03;9.53;;;;;;;9.32;56.81;95513.50;5115187;27;20419;-71
2022/04/01 04:54:20;;;;;;;15.30;9.07;;;;;;;9.32;57.04;95515.28;5124309;27;20438;-70
2022/04/01 04:56:46;;;;;;;12.23;9.60;;;;;;;9.27;57.26;95515.84;5124887;27;20634;-70
2022/04/01 04:59:12;;;;;;;10.57;8.77;;;;;;;9.29;56.89;95520.88;5098418;28;21006;-70
2022/04/01 05:02:09;;;;;;;11.60;9.20;;;;;;;9.22;57.14;95513.78;5119312;27;20421;-70
2022/04/01 05:05:04;;;;;;;11.40;9.67;;;;;;;9.18;57.08;95525.59;5126356;27;20204;-71
2022/04/01 05:08:08;;;;;;;11.87;9.17;;;;;;;9.15;56.39;95523.34;5114208;28;20441;-69
2022/04/01 05:10:42;;;;;;;11.17;8.70;;;;;;;9.19;56.87;95521.19;5029198;28;20430;-70
2022/04/01 05:13:10;;;;;;;12.30;9.90;;;;;;;9.23;56.89;95532.88;5028632;28;20428;-69
2022/04/01 05:15:37;;;;;;;11.83;8.77;;;;;;;9.21;56.25;95534.88;5028423;28;20496;-68
2022/04/01 05:18:16;;;;;;;10.10;8.43;;;;;;;9.15;57.23;95546.06;5027036;28;20439;-69
2022/04/01 05:21:02;;;;;;;9.97;8.50;;;;;;;9.07;56.87;95542.56;5020146;28;20430;-69
2022/04/01 05:23:50;;;;;;;10.20;8.50;;;;;;;9.06;56.93;95548.81;5028516;28;20525;-68
2022/04/01 05:26:20;;;;;;;9.80;7.80;;;;;;;9.10;57.05;95548.41;5027486;28;20923;-69
2022/04/01 05:28:51;;;;;;;12.60;8.27;;;;;;;9.11;56.79;95544.81;5028250;28;20430;-69
2022/04/01 05:31:25;;;;;;;11.53;9.93;;;;;;;9.07;56.73;95555.63;5028537;28;20438;-71
2022/04/01 05:34:03;;;;;;;10.50;9.37;;;;;;;9.05;56.74;95552.41;5028743;28;20428;-71
2022/04/01 05:36:28;;;;;;;11.20;9.67;;;;;;;9.06;56.40;95554.03;5028048;28;21021;-70
2022/04/01 05:38:55;;;;;;;10.70;9.00;;;;;;;8.98;56.57;95561.97;5011521;28;20474;-71
2022/04/01 05:41:21;;;;;;;10.33;9.23;;;;;;;9.01;57.06;95556.38;5028591;28;20723;-70
2022/04/01 05:43:50;;;;;;;11.03;8.97;;;;;;;8.94;56.95;95560.72;5044824;28;20522;-70
2022/04/01 05:46:17;;;;;;;11.50;9.27;;;;;;;8.92;57.31;95565.31;5111448;28;20447;-70
2022/04/01 05:48:43;;;;;;;11.67;9.30;;;;;;;8.93;57.19;95572.16;5103451;28;20419;-70
2022/04/01 05:51:15;;;;;;;10.57;8.83;;;;;;;8.97;57.37;95570.78;5106942;28;20468;-70
2022/04/01 05:53:46;;;;;;;9.87;8.80;;;;;;;8.99;56.79;95574.03;5103140;28;20484;-70
2022/04/01 05:56:14;;;;;;;12.73;10.33;;;;;;;8.89;57.00;95578.72;5110453;28;20442;-70
2022/04/01 05:58:41;;;;;;;10.50;8.43;;;;;;;8.87;56.40;95581.53;5110824;28;20454;-70
2022/04/01 06:01:43;;;;;;;11.13;8.97;;;;;;;8.80;55.84;95591.06;5093641;28;20443;-70
2022/04/01 06:04:27;;;;;;;10.60;9.43;;;;;;;8.83;56.79;95590.72;5137933;27;20457;-71
2022/04/01 06:07:28;;;;;;;10.87;8.93;;;;;;;8.81;56.87;95594.50;5104521;28;20763;-69
2022/04/01 06:10:25;;;;;;;13.23;9.63;;;;;;;8.71;56.86;95595.56;5104519;28;20423;-70
2022/04/01 06:13:03;;;;;;;10.80;8.80;;;;;;;8.81;56.44;95591.91;5104201;28;20438;-69
2022/04/01 06:15:34;;;;;;;13.00;10.10;;;;;;;8.89;56.36;95589.97;5110782;28;20446;-67
2022/04/01 06:18:19;;;;;;;13.27;9.70;;;;;;;8.82;56.27;95593.53;5113072;28;20921;-68
2022/04/01 06:20:47;;;;;;;13.13;10.70;;;;;;;8.74;56.65;95595.22;5088696;28;20455;-68
2022/04/01 06:23:30;;;;;;;11.20;9.67;;;;;;;8.69;56.50;95597.56;5107065;28;20788;-68
2022/04/01 06:25:59;;;;;;;11.73;9.67;;;;;;;8.57;57.31;95612.84;5095718;28;20448;-69
2022/04/01 06:28:28;;;;;;;13.27;10.47;;;;;;;8.54;56.52;95605.38;5108191;28;20462;-70
2022/04/01 06:30:56;;;;;;;13.73;10.00;;;;;;;8.61;56.62;95613.31;5110538;28;20423;-69
2022/04/01 06:33:30;;;;;;;12.47;10.20;;;;;;;8.62;57.26;95609.72;5092567;28;20424;-70
2022/04/01 06:35:59;;;;;;;13.27;10.23;;;;;;;8.67;57.43;95617.00;5110520;28;20953;-69
2022/04/01 06:38:37;;;;;;;13.13;11.00;;;;;;;8.72;57.07;95615.47;5111685;28;20539;-72
2022/04/01 06:41:06;;;;;;;12.67;10.77;;;;;;;8.72;56.87;95610.25;5114393;28;20422;-70
2022/04/01 06:43:32;;;;;;;14.63;11.73;;;;;;;8.75;57.14;95615.13;5114503;28;20449;-69
2022/04/01 06:45:57;;;;;;;11.90;10.20;;;;;;;8.76;57.04;95621.97;5099262;28;20780;-70
2022/04/01 06:48:23;;;;;;;13.47;10.80;;;;;;;8.75;56.44;95616.94;5112206;27;20284;-70
2022/04/01 06:50:51;;;;;;;13.60;11.00;;;;;;;8.78;56.48;95624.41;5113798;28;20264;-69
2022/04/01 06:53:17;;;;;;;12.27;10.60;;;;;;;8.70;55.78;95616.66;5114037;28;20223;-70
2022/04/01 06:55:43;;;;;;;13.07;10.87;;;;;;;8.73;56.46;95622.31;5113647;28;20541;-69
2022/04/01 06:58:11;;;;;;;13.97;10.83;;;;;;;8.71;56.86;95621.69;5099908;28;20771;-70
2022/04/01 07:00:43;;;;;;;13.33;11.07;;;;;;;8.76;56.58;95618.53;5113646;28;20441;-69
2022/04/01 07:03:09;;;;;;;14.40;12.07;;;;;;;8.69;56.46;95628.09;5097096;28;20480;-69
2022/04/01 07:05:36;;;;;;;13.40;11.73;;;;;;;8.62;56.37;95619.34;5112935;28;20491;-70
2022/04/01 07:08:02;;;;;;;13.80;11.90;;;;;;;8.58;57.20;95624.09;5113854;28;20918;-69
2022/04/01 07:10:28;;;;;;;20.20;17.33;;;;;;;8.56;56.90;95626.09;5113350;28;20422;-70
2022/04/01 07:12:53;;;;;;;38.90;31.83;;;;;;;8.43;57.02;95627.50;5113140;28;20494;-69
2022/04/01 07:15:19;;;;;;;16.97;14.57;;;;;;;8.49;57.07;95626.00;5122505;27;20306;-69
2022/04/01 07:17:44;;;;;;;19.27;15.83;;;;;;;8.50;57.20;95627.63;5109651;27;20205;-70
2022/04/01 07:20:12;;;;;;;14.87;12.80;;;;;;;8.53;56.92;95629.88;5116775;27;20212;-70
2022/04/01 07:22:39;;;;;;;16.50;13.27;;;;;;;8.52;57.50;95625.63;5113390;28;20192;-68
2022/04/01 07:25:05;;;;;;;15.13;11.60;;;;;;;8.50;57.33;95625.03;5097262;28;20439;-71
2022/04/01 07:27:30;;;;;;;13.80;11.90;;;;;;;8.56;57.12;95631.31;5111943;28;20426;-71
2022/04/01 07:29:56;;;;;;;14.77;12.73;;;;;;;8.63;57.08;95632.22;5121951;27;20423;-69
2022/04/01 07:32:32;;;;;;;14.87;12.60;;;;;;;8.62;57.20;95635.03;5112819;28;20220;-70
2022/04/01 07:34:58;;;;;;;14.03;11.70;;;;;;;8.58;56.39;95634.53;5113537;28;20211;-69
2022/04/01 07:37:24;;;;;;;13.53;11.40;;;;;;;8.58;57.45;95637.16;5121588;27;20522;-69
2022/04/01 07:39:52;;;;;;;16.30;12.30;;;;;;;8.60;56.89;95635.19;5098644;28;21001;-70
2022/04/01 07:42:20;;;;;;;14.73;11.90;;;;;;;8.46;56.58;95634.94;5109952;28;20479;-71
2022/04/01 07:44:46;;;;;;;13.00;11.57;;;;;;;8.51;57.29;95638.88;5113085;28;20962;-70
2022/04/01 07:47:14;;;;;;;13.53;11.93;;;;;;;8.53;57.13;95637.69;5113219;28;20518;-70
2022/04/01 07:49:40;;;;;;;14.07;11.90;;;;;;;8.59;57.30;95644.00;5112282;27;20419;-70
2022/04/01 07:52:09;;;;;;;18.40;12.57;;;;;;;8.56;56.47;95641.78;5120031;27;20421;-69
2022/04/01 07:54:38;;;;;;;13.00;10.73;;;;;;;8.50;57.04;95645.06;5113791;27;20446;-70
2022/04/01 07:57:05;;;;;;;13.03;11.30;;;;;;;8.53;57.22;95642.91;5113342;28;20761;-71
2022/04/01 07:59:30;;;;;;;14.17;11.53;;;;;;;8.57;57.15;95640.75;5120980;27;20481;-71
2022/04/01 08:01:56;;;;;;;15.50;12.20;;;;;;;8.62;57.04;95641.03;5112847;28;20450;-72
2022/04/01 08:04:23;;;;;;;16.60;12.80;;;;;;;8.71;57.67;95647.00;5112477;28;20232;-70
2022/04/01 08:06:48;;;;;;;12.20;10.90;;;;;;;8.65;57.64;95650.31;5098473;28;20420;-70
2022/04/01 08:09:14;;;;;;;14.03;11.27;;;;;;;8.72;56.79;95652.03;5109135;28;20423;-70
2022/04/01 08:11:39;;;;;;;14.10;11.50;;;;;;;8.67;57.13;95653.56;5113076;28;20177;-69
2022/04/01 08:14:05;;;;;;;13.60;11.43;;;;;;;8.65;56.66;95655.53;5113148;28;20176;-70
2022/04/01 08:16:30;;;;;;;15.93;11.97;;;;;;;8.63;56.65;95657.53;5113774;28;20181;-68
2022/04/01 08:18:56;;;;;;;18.57;14.80;;;;;;;8.57;57.47;95659.03;5117576;27;20247;-70
2022/04/01 08:21:21;;;;;;;19.70;15.27;;;;;;;8.59;57.07;95667.50;5111893;28;20189;-72
2022/04/01 08:23:47;;;;;;;15.90;13.33;;;;;;;8.57;57.74;95664.25;5114575;27;20201;-70
2022/04/01 08:26:12;;;;;;;14.40;12.57;;;;;;;8.58;57.23;95666.72;5116707;27;20240;-70
2022/04/01 08:28:38;;;;;;;13.03;11.63;;;;;;;8.66;57.57;95667.63;5112417;27;20181;-70
2022/04/01 08:31:06;;;;;;;13.97;12.10;;;;;;;8.67;56.62;95674.47;5112642;28;20181;-71
2022/04/01 08:33:32;;;;;;;15.83;12.50;;;;;;;8.65;57.00;95673.81;5112096;28;20462;-70
2022/04/01 08:35:57;;;;;;;14.53;12.83;;;;;;;8.65;57.16;95677.25;5113556;27;20467;-70
2022/04/01 08:38:23;;;;;;;16.13;12.30;;;;;;;8.71;56.23;95673.91;5109066;28;20221;-71
2022/04/01 08:40:48;;;;;;;14.00;12.10;;;;;;;8.59;56.64;95684.00;5116245;27;20264;-69
2022/04/01 08:43:27;;;;;;;16.17;13.57;;;;;;;8.62;57.10;95688.06;5115752;27;20189;-71
2022/04/01 08:45:52;;;;;;;16.67;13.33;;;;;;;8.68;56.86;95682.13;5081756;28;20205;-71
2022/04/01 08:48:17;;;;;;;16.17;13.70;;;;;;;8.73;56.67;95698.06;5115641;27;20479;-70
2022/04/01 08:50:43;;;;;;;17.57;13.57;;;;;;;8.69;56.91;95694.22;5111654;28;20667;-70
2022/04/01 08:53:08;;;;;;;19.80;13.13;;;;;;;8.68;57.12;95692.59;5111744;28;20176;-70
2022/04/01 08:55:34;;;;;;;14.63;12.80;;;;;;;8.72;56.53;95696.44;5112076;27;20197;-70
2022/04/01 08:57:59;;;;;;;12.87;11.17;;;;;;;8.68;56.50;95702.19;5118793;27;20174;-69
2022/04/01 09:00:25;;;;;;;14.83;12.53;;;;;;;8.67;57.19;95695.34;5098117;28;20185;-69
2022/04/01 09:02:59;;;;;;;11.93;10.63;;;;;;;8.69;56.86;95699.44;5102588;28;20212;-70
2022/04/01 09:05:25;;;;;;;17.50;11.30;;;;;;;8.66;56.93;95704.16;5092620;27;20594;-70
2022/04/01 09:08:01;;;;;;;13.87;12.07;;;;;;;8.71;57.34;95712.31;5118434;27;20427;-70
2022/04/01 09:10:26;;;;;;;14.07;11.57;;;;;;;8.62;56.89;95716.78;5093542;28;20428;-69
2022/04/01 09:12:52;;;;;;;14.60;10.80;;;;;;;8.67;57.55;95711.84;5111198;28;21012;-70
2022/04/01 09:15:19;;;;;;;12.70;10.80;;;;;;;8.63;56.59;95715.00;5110948;28;20255;-67
2022/04/01 09:17:47;;;;;;;13.00;11.23;;;;;;;8.61;56.78;95717.75;5111753;28;20238;-69
2022/04/01 09:20:14;;;;;;;13.47;10.93;;;;;;;8.65;57.68;95723.44;5112465;28;20511;-70
2022/04/01 09:22:41;;;;;;;12.40;10.67;;;;;;;8.52;57.36;95721.44;5111845;28;20953;-71
2022/04/01 09:25:09;;;;;;;12.10;9.90;;;;;;;8.51;57.14;95725.03;5112153;28;20485;-69
2022/04/01 09:27:53;;;;;;;13.60;11.40;;;;;;;8.58;57.17;95721.53;5093611;28;20419;-70
2022/04/01 09:30:26;;;;;;;12.97;10.90;;;;;;;8.59;57.14;95725.78;5110754;28;20415;-70
2022/04/01 09:32:57;;;;;;;12.33;10.10;;;;;;;8.62;57.15;95731.66;5096163;28;20423;-70
2022/04/01 09:35:26;;;;;;;11.70;9.77;;;;;;;8.58;56.88;95725.94;5116971;27;20442;-68
2022/04/01 09:38:01;;;;;;;11.80;10.30;;;;;;;8.61;57.05;95733.44;5110428;28;20534;-69
2022/04/01 09:40:27;;;;;;;12.43;10.37;;;;;;;8.66;56.89;95736.34;5110924;28;20419;-70
2022/04/01 09:42:55;;;;;;;11.53;10.00;;;;;;;8.60;57.28;95731.81;5111584;28;20430;-70
2022/04/01 09:45:23;;;;;;;13.40;10.30;;;;;;;8.56;57.03;95730.56;5110992;28;20257;-70
2022/04/01 09:48:01;;;;;;;10.70;9.30;;;;;;;8.67;57.26;95735.34;5111575;28;20419;-70
2022/04/01 09:50:30;;;;;;;10.10;8.77;;;;;;;8.67;56.68;95737.13;5108092;28;20487;-69
2022/04/01 09:53:14;;;;;;;12.27;9.83;;;;;;;8.68;56.52;95744.81;5111193;28;20439;-68
2022/04/01 09:55:45;;;;;;;10.73;9.60;;;;;;;8.67;56.32;95737.97;5111405;28;20434;-68
2022/04/01 09:58:11;;;;;;;10.77;9.50;;;;;;;8.78;56.56;95743.75;5111180;28;20793;-68
2022/04/01 10:00:38;;;;;;;15.00;10.07;;;;;;;8.70;56.48;95747.25;5113677;28;20455;-68
2022/04/01 10:03:05;;;;;;;9.73;8.43;;;;;;;8.73;56.45;95747.69;5116054;27;20502;-69
2022/04/01 10:05:30;;;;;;;9.70;8.67;;;;;;;8.72;56.51;95746.06;5110770;28;20535;-67
2022/04/01 10:07:57;;;;;;;9.10;8.17;;;;;;;8.78;56.41;95751.59;5095927;28;20518;-69
2022/04/01 10:10:24;;;;;;;11.00;9.50;;;;;;;8.72;56.45;95745.28;5107610;28;20181;-68
2022/04/01 10:12:51;;;;;;;11.23;9.63;;;;;;;8.77;56.64;95748.16;5120400;27;20423;-69
2022/04/01 10:15:18;;;;;;;11.10;8.13;;;;;;;8.69;56.16;95748.22;5104786;28;20931;-69
2022/04/01 10:17:44;;;;;;;10.70;9.07;;;;;;;8.64;56.53;95753.16;5108086;27;20414;-69
2022/04/01 10:20:12;;;;;;;12.67;10.17;;;;;;;8.69;56.16;95751.66;5097404;28;20467;-68
2022/04/01 10:22:40;;;;;;;11.53;9.50;;;;;;;8.65;55.98;95754.78;5114620;28;20458;-68
2022/04/01 10:25:16;;;;;;;11.30;10.10;;;;;;;8.64;56.73;95759.19;5114999;28;20442;-69
2022/04/01 10:27:49;;;;;;;11.30;10.10;;;;;;;8.38;56.70;95760.34;5121833;27;20429;-69
2022/04/01 10:30:18;;;;;;;9.43;8.50;;;;;;;8.25;57.00;95758.28;5114131;28;20787;-70
2022/04/01 10:32:45;;;;;;;9.50;8.50;;;;;;;8.30;56.71;95768.22;5114843;27;20434;-68
2022/04/01 10:35:26;;;;;;;10.07;9.03;;;;;;;8.27;56.12;95763.34;5114662;28;20446;-68
2022/04/01 10:38:15;;;;;;;9.53;7.60;;;;;;;8.20;57.44;95770.22;5100028;28;20473;-68
2022/04/01 10:40:44;;;;;;;8.40;7.60;;;;;;;8.14;57.40;95769.94;5118702;27;20435;-69
2022/04/01 10:43:10;;;;;;;16.30;13.30;;;;;;;8.10;57.25;95771.28;5114536;28;20441;-69
2022/04/01 10:45:37;;;;;;;12.63;11.33;;;;;;;8.11;57.17;95770.28;5114127;28;20537;-69
2022/04/01 10:51:36;;;;;;;8.53;7.70;;;;;;;8.17;57.29;95778.44;5114315;28;20769;-69
2022/04/01 10:54:12;;;;;;;9.37;6.70;;;;;;;8.11;57.19;95772.09;5116807;27;20449;-69
2022/04/01 10:56:41;;;;;;;8.97;7.90;;;;;;;8.18;57.41;95775.63;5116012;27;20415;-69
2022/04/01 10:59:14;;;;;;;8.47;7.67;;;;;;;8.22;57.40;95781.31;5113423;27;20447;-68
2022/04/01 11:02:03;;;;;;;8.70;7.70;;;;;;;8.23;57.13;95783.78;5113480;28;20509;-68
2022/04/01 11:04:35;;;;;;;7.30;6.60;;;;;;;8.20;57.14;95783.28;5094938;28;20547;-68
2022/04/01 11:07:11;;;;;;;6.00;5.40;;;;;;;8.18;56.49;95782.66;5112792;28;21084;-68
2022/04/01 11:09:50;;;;;;;5.20;4.70;;;;;;;8.06;57.03;95788.28;5112437;28;20427;-69
2022/04/01 11:12:18;;;;;;;5.57;4.70;;;;;;;8.05;56.44;95786.66;5113255;28;20423;-67
2022/04/01 11:14:59;;;;;;;5.37;4.87;;;;;;;8.10;57.24;95789.53;5109834;27;20438;-69
2022/04/01 11:17:33;;;;;;;5.30;4.23;;;;;;;8.07;56.07;95791.69;5116121;27;20426;-68
2022/04/01 11:20:06;;;;;;;3.80;3.50;;;;;;;7.94;56.37;95800.06;5121813;27;20457;-68
2022/04/01 11:22:39;;;;;;;3.60;3.30;;;;;;;8.05;57.37;95793.66;5122347;27;20423;-68
2022/04/01 11:25:05;;;;;;;3.50;3.20;;;;;;;8.11;56.41;95796.38;5112357;28;20462;-69
2022/04/01 11:27:33;;;;;;;3.10;2.90;;;;;;;8.16;56.88;95795.88;5113293;27;20473;-68
2022/04/01 11:30:08;;;;;;;3.00;2.80;;;;;;;8.19;56.71;95786.91;5113503;28;20419;-68
2022/04/01 11:32:38;;;;;;;2.87;2.60;;;;;;;8.09;55.99;95795.72;5113128;28;20426;-70
2022/04/01 11:35:05;;;;;;;2.27;2.10;;;;;;;7.94;56.68;95798.25;5122050;27;20524;-68
2022/04/01 11:37:35;;;;;;;2.33;2.23;;;;;;;7.92;57.08;95807.25;5113021;28;20905;-68
2022/04/01 11:40:07;;;;;;;2.27;2.10;;;;;;;7.93;56.58;95807.06;5097196;28;20462;-67
2022/04/01 11:42:32;;;;;;;2.30;2.10;;;;;;;8.07;57.07;95802.13;5111272;28;20419;-68
2022/04/01 11:44:59;;;;;;;3.00;2.73;;;;;;;7.87;56.76;95804.31;5111581;28;20973;-68
2022/04/01 11:47:34;;;;;;;3.77;3.47;;;;;;;7.96;57.86;95800.69;5121626;27;20192;-68